Somonauk, IL

1:37 AM CST on January 21, 2017 (GMT -0600)
Rural--2.75 mi WSW Sandwich, IL | | Change Station

Elev 698 ft 41.62 °N, 88.65 °W | Updated 37 seconds ago

Fog
Fog
44.6 °F
Feels Like 45 °F
N
0.0
Wind Variable Wind from WNW
Gusts 3.5 mph

Today
High -- | Low -- °F
--% Chance of Precip.
Yesterday
High -- | Low -- °F
Precip. -- in
Pressure 29.58 in
Visibility 1.2 miles
Clouds Overcast 300 ft
Windchill 45 °F
Dew Point 44 °F
Humidity 99%
Rainfall 0.00 in
Snow Depth Not available.
7:15 AM 4:56 PM
Last Quarter, 37% visible
SPECI KARR 210712Z AUTO 13008KT 1 1/4SM BR OVC003 07/07 A2958 RMK AO2 T00720067 $
Pressure 29.58 in
Visibility 1.2 miles
Clouds Overcast 300 ft
Windchill 45 °F
Dew Point 44 °F
Humidity 99%
Rainfall 0.00 in
Snow Depth Not available.
7:15 AM 4:56 PM
Last Quarter, 37% visible
SPECI KARR 210712Z AUTO 13008KT 1 1/4SM BR OVC003 07/07 A2958 RMK AO2 T00720067 $

Get Your Daily Forecast Email!

Thanks for signing up!

Be on the lookout for a verification email in your inbox.

You'll start receiving the daily forecast at 8 AM.

×

10-Day Weather Forecast

Almanac

Astronomy

Jan. 21, 2017 Rise Set
Actual Time
Civil Twilight
Nautical Twilight
Astronomical Twilight
Moon
Length of Visible Light
Length of Day
Tomorrow will be .
, % of the Moon is Illuminated

Today's Extremes

State Highs State Lows

Community

WunderPhotos

Upload Photos

1,962,540 photos uploaded!

WunderBlog® & News

Nearby

Air Quality

  Air Quality AQ Index Pollutant
Not available.

Snow Depth

Station Depth Elevation

Earthquake Activity

City Distance Mag. Time & Date
Minimum magnitude displayed is 2.5.

Coastal Water Temperatures

Place Temperature

Stations

Nearby Weather Stations

Station Location Temp. Windchill Dew Point Humidity Wind Precip. Elev Updated Type
                   

Watches & Warnings

Dense Fog Advisory
Issued: 8:49 PM CST Jan. 20, 2017 – National Weather Service

... Dense fog advisory remains in effect until 9 am CST Saturday...

* visibility... dropping to one quarter mile or less at times.

Precautionary/preparedness actions...

A dense fog advisory means visibilities will frequently be
reduced to less than one quarter mile. If driving... slow down...
use your headlights... and leave plenty of distance ahead of you.



Izzi



Marine Fog Advisory
Issued: 8:49 PM CST Jan. 20, 2017 – National Weather Service

... Dense fog advisory remains in effect until 10 am CST
Saturday...

* visibility... a half mile or less.

Precautionary/preparedness actions...

A dense fog advisory means visibilities will frequently be
reduced to less than one mile. Inexperienced mariners...
especially those operating smaller vessels should avoid
navigating in these conditions.